createdAt,value
2022-09-10T00:00:02.739Z,99.90
2022-09-10T00:02:17.089Z,99.90
2022-09-10T00:04:25.868Z,99.90
2022-09-10T00:06:36.723Z,99.90
2022-09-10T00:08:43.898Z,99.90
2022-09-10T00:10:53.497Z,99.90
2022-09-10T00:13:00.829Z,99.90
2022-09-10T00:15:09.747Z,99.90
2022-09-10T00:17:17.190Z,99.90
2022-09-10T00:19:26.060Z,99.90
2022-09-10T00:21:33.499Z,99.90
2022-09-10T00:23:40.983Z,99.90
2022-09-10T00:25:47.806Z,99.90
2022-09-10T00:27:55.039Z,99.90
2022-09-10T00:30:03.145Z,99.90
2022-09-10T00:32:10.896Z,99.90
2022-09-10T00:34:18.227Z,99.90
2022-09-10T00:36:28.892Z,99.90
2022-09-10T00:38:36.730Z,99.90
2022-09-10T00:40:44.274Z,99.90
2022-09-10T00:42:51.657Z,99.90
2022-09-10T00:45:04.838Z,99.90
2022-09-10T00:47:18.364Z,99.90
2022-09-10T00:49:34.149Z,99.90
2022-09-10T00:51:43.472Z,99.90
2022-09-10T00:53:50.713Z,99.90
2022-09-10T00:56:01.329Z,99.90
2022-09-10T00:58:11.529Z,99.90
2022-09-10T01:00:19.630Z,99.90
2022-09-10T01:02:27.163Z,99.90
2022-09-10T01:04:35.103Z,99.90
2022-09-10T01:06:45.580Z,99.90
2022-09-10T01:08:52.811Z,99.90
2022-09-10T01:11:13.200Z,99.90
2022-09-10T01:13:40.979Z,99.90
2022-09-10T01:15:56.657Z,99.90
2022-09-10T01:18:14.220Z,99.90
2022-09-10T01:20:50.385Z,99.90
2022-09-10T01:23:30.240Z,99.90
2022-09-10T01:25:46.988Z,99.90
2022-09-10T01:27:58.980Z,99.90
2022-09-10T01:30:08.839Z,99.90
2022-09-10T01:32:21.799Z,99.90
2022-09-10T01:34:34.047Z,99.90
2022-09-10T01:36:43.633Z,99.90
2022-09-10T01:38:52.757Z,99.90
2022-09-10T01:41:01.952Z,99.90
2022-09-10T01:43:16.747Z,99.90
2022-09-10T01:45:27.692Z,99.90
2022-09-10T01:47:58.914Z,99.90
2022-09-10T01:50:18.938Z,99.90
2022-09-10T01:52:34.795Z,99.90
2022-09-10T01:54:53.783Z,99.90
2022-09-10T01:57:09.113Z,99.90
2022-09-10T01:59:30.780Z,99.90
2022-09-10T02:01:44.616Z,99.90
2022-09-10T02:03:55.294Z,99.90
2022-09-10T02:06:03.797Z,99.90
2022-09-10T02:08:15.791Z,99.90
2022-09-10T02:10:23.485Z,99.90
2022-09-10T02:12:30.767Z,99.90
2022-09-10T02:15:00.173Z,99.90
2022-09-10T02:17:29.060Z,99.90
2022-09-10T02:19:35.890Z,99.90
2022-09-10T02:21:43.170Z,99.90
2022-09-10T02:23:54.089Z,99.90
2022-09-10T02:26:01.929Z,99.90
2022-09-10T02:28:10.040Z,99.90
2022-09-10T02:30:18.912Z,99.90
2022-09-10T02:32:26.400Z,99.90
2022-09-10T02:34:33.524Z,99.90
2022-09-10T02:36:41.625Z,99.90
2022-09-10T02:38:48.659Z,99.90
2022-09-10T02:40:56.818Z,99.90
2022-09-10T02:43:04.100Z,99.90
2022-09-10T02:45:11.640Z,99.90
2022-09-10T02:47:20.250Z,99.80
2022-09-10T02:49:27.538Z,98.40
2022-09-10T02:51:35.175Z,98.40
2022-09-10T02:53:42.871Z,98.20
2022-09-10T02:55:50.775Z,97.70
2022-09-10T02:57:57.752Z,97.50
2022-09-10T03:00:05.537Z,97.20
2022-09-10T03:02:12.791Z,97.10
2022-09-10T03:04:21.653Z,97.10
2022-09-10T03:06:29.972Z,97.00
2022-09-10T03:08:38.453Z,96.50
2022-09-10T03:10:45.914Z,95.80
2022-09-10T03:12:53.291Z,95.30
2022-09-10T03:15:00.734Z,94.80
2022-09-10T03:17:08.737Z,94.40
2022-09-10T03:19:16.344Z,94.00
2022-09-10T03:21:27.809Z,93.70
2022-09-10T03:23:37.596Z,93.40
2022-09-10T03:25:49.500Z,93.10
2022-09-10T03:28:03.124Z,92.70
2022-09-10T03:30:11.476Z,92.40
2022-09-10T03:32:18.719Z,91.90
2022-09-10T03:34:25.746Z,92.30
2022-09-10T03:36:34.558Z,92.50
2022-09-10T03:38:43.428Z,92.60
2022-09-10T03:40:50.465Z,92.50
2022-09-10T03:42:57.791Z,92.50
2022-09-10T03:45:04.828Z,92.40
2022-09-10T03:47:13.546Z,92.60
2022-09-10T03:49:20.770Z,92.60
2022-09-10T03:51:29.085Z,92.40
2022-09-10T03:53:39.849Z,92.10
2022-09-10T03:55:49.032Z,92.00
2022-09-10T03:57:57.442Z,91.40
2022-09-10T04:00:04.829Z,91.20
2022-09-10T04:02:22.860Z,91.10
2022-09-10T04:04:30.554Z,90.70
2022-09-10T04:06:38.918Z,90.50
2022-09-10T04:08:47.529Z,90.40
2022-09-10T04:10:55.842Z,90.80
2022-09-10T04:13:03.330Z,91.40
2022-09-10T04:15:13.736Z,91.60
2022-09-10T04:17:20.966Z,91.50
2022-09-10T04:19:29.896Z,91.20
2022-09-10T04:21:37.021Z,90.80
2022-09-10T04:23:46.765Z,90.50
2022-09-10T04:25:54.352Z,90.70
2022-09-10T04:28:01.330Z,90.40
2022-09-10T04:30:10.405Z,89.70
2022-09-10T04:32:17.670Z,88.10
2022-09-10T04:34:25.133Z,87.30
2022-09-10T04:36:33.079Z,86.80
2022-09-10T04:38:43.284Z,86.20
2022-09-10T04:40:54.907Z,85.30
2022-09-10T04:43:03.021Z,84.30
2022-09-10T04:45:11.835Z,84.40
2022-09-10T04:47:19.583Z,84.40
2022-09-10T04:49:26.615Z,83.80
2022-09-10T04:51:34.610Z,82.50
2022-09-10T04:53:41.746Z,82.60
2022-09-10T04:55:51.028Z,82.20
2022-09-10T04:58:00.151Z,82.00
2022-09-10T05:00:08.050Z,81.20
2022-09-10T05:02:17.442Z,81.30
2022-09-10T05:04:25.381Z,80.70
2022-09-10T05:06:33.690Z,79.70
2022-09-10T05:08:41.077Z,79.10
2022-09-10T05:10:49.485Z,79.30
2022-09-10T05:12:56.976Z,79.00
2022-09-10T05:15:07.592Z,78.90
2022-09-10T05:17:15.178Z,78.80
2022-09-10T05:19:22.260Z,79.60
2022-09-10T05:21:35.533Z,79.60
2022-09-10T05:23:42.918Z,79.20
2022-09-10T05:25:50.860Z,79.20
2022-09-10T05:27:58.303Z,79.10
2022-09-10T05:30:08.305Z,79.00
2022-09-10T05:32:16.303Z,78.60
2022-09-10T05:34:23.484Z,78.40
2022-09-10T05:36:33.125Z,78.50
2022-09-10T05:38:41.396Z,79.00
2022-09-10T05:40:49.279Z,79.40
2022-09-10T05:42:56.921Z,79.60
2022-09-10T05:45:05.735Z,79.80
2022-09-10T05:47:14.063Z,79.90
2022-09-10T05:49:21.030Z,80.20
2022-09-10T05:51:31.127Z,80.00
2022-09-10T05:53:42.825Z,80.10
2022-09-10T05:55:51.071Z,80.00
2022-09-10T05:57:59.073Z,80.20
2022-09-10T06:00:09.735Z,80.30
2022-09-10T06:02:30.623Z,80.20
2022-09-10T06:04:37.871Z,79.40
2022-09-10T06:06:45.055Z,78.70
2022-09-10T06:08:55.303Z,78.30
2022-09-10T06:11:15.075Z,78.50
2022-09-10T06:13:27.898Z,78.50
2022-09-10T06:15:39.136Z,77.60
2022-09-10T06:17:47.178Z,77.50
2022-09-10T06:19:54.765Z,77.50
2022-09-10T06:22:01.996Z,77.30
2022-09-10T06:24:13.840Z,77.60
2022-09-10T06:26:22.247Z,77.40
2022-09-10T06:28:32.659Z,77.30
2022-09-10T06:30:41.844Z,77.70
2022-09-10T06:32:50.097Z,77.60
2022-09-10T06:34:57.534Z,77.50
2022-09-10T06:37:04.652Z,77.60
2022-09-10T06:39:13.941Z,77.10
2022-09-10T06:41:28.339Z,77.10
2022-09-10T06:43:45.102Z,76.70
2022-09-10T06:46:40.771Z,76.30
2022-09-10T06:48:50.445Z,76.00
2022-09-10T06:51:01.069Z,76.00
2022-09-10T06:53:14.911Z,76.20
2022-09-10T06:55:22.394Z,76.30
2022-09-10T06:57:30.551Z,76.70
2022-09-10T06:59:37.590Z,76.80
2022-09-10T07:01:48.495Z,76.90
2022-09-10T07:03:59.627Z,77.00
2022-09-10T07:06:10.028Z,77.60
2022-09-10T07:08:22.127Z,78.00
2022-09-10T07:10:34.838Z,78.20
2022-09-10T07:12:42.167Z,77.90
2022-09-10T07:14:49.969Z,77.90
2022-09-10T07:16:59.247Z,78.50
2022-09-10T07:19:09.245Z,78.70
2022-09-10T07:21:21.083Z,78.90
2022-09-10T07:23:28.267Z,79.80
2022-09-10T07:25:37.496Z,79.70
2022-09-10T07:27:47.896Z,80.50
2022-09-10T07:29:54.990Z,80.60
2022-09-10T07:32:05.492Z,81.00
2022-09-10T07:34:12.879Z,81.80
2022-09-10T07:36:22.110Z,82.30
2022-09-10T07:38:30.518Z,82.40
2022-09-10T07:40:38.824Z,82.60
2022-09-10T07:42:46.635Z,83.10
2022-09-10T07:44:53.756Z,83.60
2022-09-10T07:47:04.569Z,83.30
2022-09-10T07:49:13.541Z,83.40
2022-09-10T07:51:23.647Z,83.70
2022-09-10T07:53:31.483Z,84.10
2022-09-10T07:55:39.497Z,84.50
2022-09-10T07:57:47.130Z,85.00
2022-09-10T07:59:54.930Z,85.20
2022-09-10T08:02:05.926Z,85.70
2022-09-10T08:04:16.256Z,85.80
2022-09-10T08:06:24.467Z,85.90
2022-09-10T08:08:34.203Z,85.70
2022-09-10T08:10:41.541Z,85.50
2022-09-10T08:12:48.671Z,85.60
2022-09-10T08:14:56.010Z,85.50
2022-09-10T08:17:05.386Z,85.40
2022-09-10T08:19:17.068Z,85.50
2022-09-10T08:21:26.055Z,85.50
2022-09-10T08:23:33.899Z,84.00
2022-09-10T08:25:41.387Z,82.40
2022-09-10T08:27:48.414Z,83.10
2022-09-10T08:29:56.204Z,81.50
2022-09-10T08:32:06.307Z,82.20
2022-09-10T08:34:16.093Z,82.30
2022-09-10T08:36:30.041Z,83.00
2022-09-10T08:38:39.951Z,83.50
2022-09-10T08:40:49.475Z,83.50
2022-09-10T08:42:57.826Z,83.60
2022-09-10T08:45:12.491Z,85.00
2022-09-10T08:47:28.785Z,85.50
2022-09-10T08:49:45.635Z,86.30
2022-09-10T08:51:56.985Z,87.10
2022-09-10T08:54:09.726Z,87.70
2022-09-10T08:56:20.030Z,88.20
2022-09-10T08:58:37.749Z,88.30
2022-09-10T09:00:47.455Z,88.20
2022-09-10T09:03:06.337Z,88.20
2022-09-10T09:05:19.122Z,88.80
2022-09-10T09:07:40.643Z,89.80
2022-09-10T09:09:51.658Z,90.20
2022-09-10T09:12:05.611Z,91.20
2022-09-10T09:14:27.284Z,92.50
2022-09-10T09:17:06.611Z,92.80
2022-09-10T09:19:27.465Z,93.20
2022-09-10T09:21:44.573Z,93.00
2022-09-10T09:24:12.580Z,93.50
2022-09-10T09:26:29.399Z,94.20
2022-09-10T09:28:43.100Z,94.80
2022-09-10T09:30:52.821Z,95.30
2022-09-10T09:33:06.674Z,95.50
2022-09-10T09:35:27.207Z,95.30
2022-09-10T09:37:36.078Z,94.60
2022-09-10T09:39:48.920Z,95.00
2022-09-10T09:42:03.095Z,95.60
2022-09-10T09:44:20.683Z,95.80
2022-09-10T09:46:28.216Z,96.20
2022-09-10T09:48:43.282Z,96.30
2022-09-10T09:50:56.452Z,97.00
2022-09-10T09:53:03.887Z,97.30
2022-09-10T09:55:24.584Z,96.60
2022-09-10T09:57:31.924Z,97.00
2022-09-10T09:59:38.946Z,97.50
2022-09-10T10:01:46.794Z,97.70
2022-09-10T10:03:59.609Z,97.60
2022-09-10T10:06:10.474Z,98.20
2022-09-10T10:08:33.023Z,97.70
2022-09-10T10:10:40.406Z,97.90
2022-09-10T10:12:53.733Z,97.90
2022-09-10T10:15:01.119Z,98.40
2022-09-10T10:17:39.224Z,98.60
2022-09-10T10:19:46.460Z,98.80
2022-09-10T10:21:55.589Z,98.90
2022-09-10T10:24:02.819Z,99.10
2022-09-10T10:26:32.218Z,99.30
2022-09-10T10:28:39.527Z,99.70
2022-09-10T10:30:53.827Z,99.80
2022-09-10T10:33:03.083Z,99.80
2022-09-10T10:35:45.391Z,99.70
2022-09-10T10:38:09.671Z,99.90
2022-09-10T10:40:27.549Z,99.90
2022-09-10T10:42:37.704Z,99.90
2022-09-10T10:45:00.392Z,99.90
2022-09-10T10:47:29.084Z,99.90
2022-09-10T10:49:47.172Z,99.90
2022-09-10T10:52:02.396Z,99.90
2022-09-10T10:54:26.828Z,99.90
2022-09-10T10:56:40.359Z,99.90
2022-09-10T10:59:07.310Z,99.90
2022-09-10T11:01:23.059Z,99.90
2022-09-10T11:03:35.490Z,99.90
2022-09-10T11:05:44.786Z,99.90
2022-09-10T11:07:52.721Z,99.90
2022-09-10T11:10:06.611Z,99.90
2022-09-10T11:12:18.515Z,99.90
2022-09-10T11:14:30.194Z,99.80
2022-09-10T11:16:44.551Z,99.50
2022-09-10T11:18:56.791Z,99.70
2022-09-10T11:21:11.133Z,99.70
2022-09-10T11:23:27.223Z,99.60
2022-09-10T11:25:42.194Z,99.20
2022-09-10T11:27:53.259Z,99.20
2022-09-10T11:30:04.953Z,99.20
2022-09-10T11:32:20.842Z,99.30
2022-09-10T11:34:37.441Z,99.10
2022-09-10T11:36:51.129Z,99.70
2022-09-10T11:39:15.004Z,99.60
2022-09-10T11:41:29.289Z,99.60
2022-09-10T11:43:43.444Z,99.60
2022-09-10T11:45:54.662Z,99.90
2022-09-10T11:48:04.666Z,99.90
2022-09-10T11:50:23.692Z,99.90
2022-09-10T11:52:32.601Z,99.90
2022-09-10T11:54:40.082Z,99.90
2022-09-10T11:57:00.431Z,99.90
2022-09-10T11:59:20.256Z,99.90
2022-09-10T12:01:43.750Z,99.90
2022-09-10T12:04:25.044Z,99.90
2022-09-10T12:06:39.864Z,99.90
2022-09-10T12:09:02.556Z,99.90
2022-09-10T12:11:21.622Z,99.90
2022-09-10T12:13:31.005Z,99.90
2022-09-10T12:15:38.982Z,99.90
2022-09-10T12:17:49.819Z,99.90
2022-09-10T12:20:00.184Z,99.90
2022-09-10T12:22:11.040Z,99.90
2022-09-10T12:24:32.764Z,99.90
2022-09-10T12:26:46.556Z,99.90
2022-09-10T12:29:07.914Z,99.90
2022-09-10T12:31:16.521Z,99.90
2022-09-10T12:34:07.551Z,99.90
2022-09-10T12:36:15.328Z,99.90
2022-09-10T12:38:50.115Z,99.90
2022-09-10T12:40:57.402Z,99.90
2022-09-10T12:43:42.164Z,99.90
2022-09-10T12:46:23.866Z,99.90
2022-09-10T12:48:31.906Z,99.90
2022-09-10T12:50:55.568Z,99.90
2022-09-10T12:53:40.501Z,99.90
2022-09-10T12:56:00.829Z,99.90
2022-09-10T12:58:23.822Z,99.90
2022-09-10T13:00:43.299Z,99.90
2022-09-10T13:02:59.701Z,99.90
2022-09-10T13:05:09.080Z,99.90
2022-09-10T13:07:27.109Z,99.90
2022-09-10T13:09:39.819Z,99.90
2022-09-10T13:11:50.995Z,99.90
2022-09-10T13:14:02.789Z,99.90
2022-09-10T13:16:09.536Z,99.90
2022-09-10T13:18:29.239Z,99.90
2022-09-10T13:20:37.389Z,99.90
2022-09-10T13:23:05.662Z,99.90
2022-09-10T13:25:38.444Z,99.90
2022-09-10T13:27:45.375Z,99.90
2022-09-10T13:29:56.558Z,99.90
2022-09-10T13:32:11.007Z,99.90
2022-09-10T13:34:57.970Z,99.90
2022-09-10T13:37:25.017Z,99.90
2022-09-10T13:40:27.892Z,99.90
2022-09-10T13:42:54.184Z,99.90
2022-09-10T13:45:23.275Z,99.90
2022-09-10T13:47:37.015Z,99.90
2022-09-10T13:49:56.071Z,99.90
2022-09-10T13:52:05.813Z,99.90
2022-09-10T13:54:24.723Z,99.90
2022-09-10T13:56:34.513Z,99.90
2022-09-10T13:58:48.357Z,99.90
2022-09-10T14:00:57.941Z,99.90
2022-09-10T14:03:05.174Z,99.90
2022-09-10T14:05:30.429Z,99.90
2022-09-10T14:07:37.863Z,99.90
2022-09-10T14:09:47.559Z,99.90
2022-09-10T14:11:54.739Z,99.90
2022-09-10T14:14:07.089Z,99.90
2022-09-10T14:16:17.089Z,99.90
2022-09-10T14:18:25.660Z,99.90
2022-09-10T14:20:37.136Z,99.90
2022-09-10T14:22:44.116Z,99.90
2022-09-10T14:24:55.241Z,99.90
2022-09-10T14:27:20.695Z,99.90
2022-09-10T14:29:28.901Z,99.90
2022-09-10T14:31:39.557Z,99.90
2022-09-10T14:33:46.605Z,99.90
2022-09-10T14:35:56.131Z,99.90
2022-09-10T14:38:06.119Z,99.90
2022-09-10T14:40:22.117Z,99.90
2022-09-10T14:42:35.175Z,99.90
2022-09-10T14:44:46.364Z,99.90
2022-09-10T14:46:58.462Z,99.90
2022-09-10T14:49:17.317Z,99.90
2022-09-10T14:51:27.205Z,99.90
2022-09-10T14:53:34.537Z,99.90
2022-09-10T14:55:41.622Z,99.90
2022-09-10T14:57:48.852Z,99.90
2022-09-10T14:59:57.412Z,99.90
2022-09-10T15:02:06.909Z,99.90
2022-09-10T15:04:16.955Z,99.90
2022-09-10T15:06:26.781Z,99.90
2022-09-10T15:08:35.878Z,99.90
2022-09-10T15:10:42.843Z,99.90
2022-09-10T15:12:53.311Z,99.90
2022-09-10T15:15:01.207Z,99.90
2022-09-10T15:17:09.621Z,99.90
2022-09-10T15:19:17.210Z,99.90
2022-09-10T15:21:26.182Z,99.90
2022-09-10T15:23:33.409Z,99.90
2022-09-10T15:25:42.534Z,99.90
2022-09-10T15:27:49.416Z,99.90
2022-09-10T15:29:56.180Z,99.90
2022-09-10T15:32:03.060Z,99.90
2022-09-10T15:34:11.280Z,99.90
2022-09-10T15:36:18.500Z,99.90
2022-09-10T15:38:27.130Z,99.90
2022-09-10T15:40:34.304Z,99.90
2022-09-10T15:42:41.223Z,99.90
2022-09-10T15:44:48.553Z,99.90
2022-09-10T15:46:55.534Z,99.90
2022-09-10T15:49:02.667Z,99.90
2022-09-10T15:51:11.823Z,99.90
2022-09-10T15:53:19.038Z,99.90
2022-09-10T15:55:28.718Z,99.90
2022-09-10T15:57:37.077Z,99.90
2022-09-10T15:59:44.004Z,99.90
2022-09-10T16:01:51.109Z,99.90
2022-09-10T16:04:00.259Z,99.90
2022-09-10T16:06:09.545Z,99.90
2022-09-10T16:08:16.665Z,99.90
2022-09-10T16:10:24.417Z,99.90
2022-09-10T16:12:32.985Z,99.90
2022-09-10T16:14:40.213Z,99.90
2022-09-10T16:16:47.138Z,99.90
2022-09-10T16:18:55.596Z,99.90
2022-09-10T16:21:12.562Z,99.90
2022-09-10T16:23:20.149Z,99.90
2022-09-10T16:25:27.285Z,99.90
2022-09-10T16:27:35.848Z,99.90
2022-09-10T16:29:44.720Z,99.90
2022-09-10T16:31:51.744Z,99.90
2022-09-10T16:34:00.773Z,99.90
2022-09-10T16:36:09.026Z,99.90
2022-09-10T16:38:16.005Z,99.90
2022-09-10T16:40:23.028Z,99.90
2022-09-10T16:42:30.721Z,99.90
2022-09-10T16:44:39.794Z,99.90
2022-09-10T16:46:47.700Z,99.90
2022-09-10T16:48:56.672Z,99.90
2022-09-10T16:51:08.669Z,99.90
2022-09-10T16:53:15.792Z,99.90
2022-09-10T16:55:23.900Z,99.90
2022-09-10T16:57:31.393Z,99.90
2022-09-10T16:59:40.166Z,99.90
2022-09-10T17:01:49.461Z,99.90
2022-09-10T17:03:57.352Z,99.90
2022-09-10T17:06:04.412Z,99.90
2022-09-10T17:08:11.986Z,99.90
2022-09-10T17:10:20.571Z,99.90
2022-09-10T17:12:27.513Z,99.90
2022-09-10T17:14:34.785Z,99.90
2022-09-10T17:16:44.678Z,99.90
2022-09-10T17:18:59.799Z,99.90
2022-09-10T17:21:07.082Z,99.90
2022-09-10T17:23:15.536Z,99.90
2022-09-10T17:25:22.256Z,99.90
2022-09-10T17:27:31.799Z,99.90
2022-09-10T17:29:39.806Z,99.90
2022-09-10T17:31:49.855Z,99.90
2022-09-10T17:33:57.033Z,99.90
2022-09-10T17:36:06.823Z,99.90
2022-09-10T17:38:14.062Z,99.90
2022-09-10T17:40:22.312Z,99.90
2022-09-10T17:42:29.396Z,99.90
2022-09-10T17:44:36.783Z,99.90
2022-09-10T17:46:43.795Z,99.90
2022-09-10T17:48:53.398Z,99.90
2022-09-10T17:51:00.486Z,99.90
2022-09-10T17:53:08.472Z,99.90
2022-09-10T17:55:15.567Z,99.90
2022-09-10T17:57:23.607Z,99.90
2022-09-10T17:59:31.262Z,99.90
2022-09-10T18:01:40.405Z,99.90
2022-09-10T18:03:47.509Z,99.90
2022-09-10T18:05:56.582Z,99.90
2022-09-10T18:08:03.606Z,99.90
2022-09-10T18:10:11.655Z,99.90
2022-09-10T18:12:19.059Z,99.90
2022-09-10T18:14:27.256Z,99.90
2022-09-10T18:16:36.029Z,99.90
2022-09-10T18:18:43.567Z,99.90
2022-09-10T18:20:50.492Z,99.90
2022-09-10T18:23:01.197Z,99.90
2022-09-10T18:25:08.591Z,99.90
2022-09-10T18:27:15.618Z,99.90
2022-09-10T18:29:24.034Z,99.90
2022-09-10T18:31:33.127Z,99.90
2022-09-10T18:33:41.437Z,99.90
2022-09-10T18:35:49.156Z,99.90
2022-09-10T18:37:58.336Z,99.90
2022-09-10T18:40:07.616Z,99.90
2022-09-10T18:42:15.003Z,99.90
2022-09-10T18:44:24.491Z,99.90
2022-09-10T18:46:32.139Z,99.90
2022-09-10T18:48:39.213Z,99.90
2022-09-10T18:50:46.033Z,99.90
2022-09-10T18:52:54.702Z,99.90
2022-09-10T18:55:03.213Z,99.90
2022-09-10T18:57:10.964Z,99.90
2022-09-10T18:59:21.211Z,99.90
2022-09-10T19:01:29.946Z,99.90
2022-09-10T19:03:40.805Z,99.90
2022-09-10T19:05:48.072Z,99.90
2022-09-10T19:07:55.417Z,99.90
2022-09-10T19:10:05.681Z,99.90
2022-09-10T19:12:18.638Z,99.90
2022-09-10T19:14:28.582Z,99.90
2022-09-10T19:16:38.069Z,99.90
2022-09-10T19:18:45.050Z,99.90
2022-09-10T19:20:52.123Z,99.90
2022-09-10T19:22:59.606Z,99.90
2022-09-10T19:25:08.997Z,99.90
2022-09-10T19:27:16.074Z,99.90
2022-09-10T19:29:23.723Z,99.90
2022-09-10T19:31:32.687Z,99.90
2022-09-10T19:33:40.585Z,99.90
2022-09-10T19:35:48.429Z,99.90
2022-09-10T19:37:55.364Z,99.90
2022-09-10T19:40:02.684Z,99.90
2022-09-10T19:42:11.722Z,99.90
2022-09-10T19:44:19.770Z,99.90
2022-09-10T19:46:29.408Z,99.90
2022-09-10T19:48:37.317Z,99.90
2022-09-10T19:50:44.900Z,99.90
2022-09-10T19:52:51.829Z,99.90
2022-09-10T19:54:58.703Z,99.90
2022-09-10T19:57:05.733Z,99.90
2022-09-10T19:59:15.779Z,99.90
2022-09-10T20:01:24.812Z,99.90
2022-09-10T20:03:31.836Z,99.90
2022-09-10T20:05:39.122Z,99.90
2022-09-10T20:07:46.201Z,99.90
2022-09-10T20:09:54.714Z,99.90
2022-09-10T20:12:01.739Z,99.90
2022-09-10T20:14:10.761Z,99.90
2022-09-10T20:16:20.231Z,99.90
2022-09-10T20:18:30.961Z,99.90
2022-09-10T20:20:38.595Z,99.90
2022-09-10T20:22:45.528Z,99.90
2022-09-10T20:24:53.168Z,99.90
2022-09-10T20:27:00.508Z,99.90
2022-09-10T20:29:09.072Z,99.90
2022-09-10T20:31:18.973Z,99.90
2022-09-10T20:33:26.199Z,99.90
2022-09-10T20:35:33.328Z,99.90
2022-09-10T20:37:40.508Z,99.90
2022-09-10T20:39:49.731Z,99.90
2022-09-10T20:41:57.128Z,99.90
2022-09-10T20:44:04.714Z,99.90
2022-09-10T20:46:19.702Z,99.90
2022-09-10T20:48:26.967Z,99.90
2022-09-10T20:50:33.841Z,99.90
2022-09-10T20:52:40.972Z,99.90
2022-09-10T20:54:48.049Z,99.90
2022-09-10T20:56:55.590Z,99.90
2022-09-10T20:59:03.100Z,99.90
2022-09-10T21:01:12.138Z,99.90
2022-09-10T21:03:20.920Z,99.90
2022-09-10T21:05:29.438Z,99.90
2022-09-10T21:07:37.287Z,99.90
2022-09-10T21:09:44.208Z,99.90
2022-09-10T21:11:51.846Z,99.90
2022-09-10T21:14:00.573Z,99.90
2022-09-10T21:16:14.621Z,99.90
2022-09-10T21:18:23.329Z,99.90
2022-09-10T21:20:30.505Z,99.90
2022-09-10T21:22:37.899Z,99.90
2022-09-10T21:24:45.084Z,99.90
2022-09-10T21:26:52.516Z,99.90
2022-09-10T21:29:00.924Z,99.90
2022-09-10T21:31:08.481Z,99.90
2022-09-10T21:33:15.545Z,99.90
2022-09-10T21:35:24.473Z,99.90
2022-09-10T21:37:31.548Z,99.90
2022-09-10T21:39:38.608Z,99.90
2022-09-10T21:41:47.098Z,99.90
2022-09-10T21:43:54.321Z,99.90
2022-09-10T21:46:01.581Z,99.90
2022-09-10T21:48:08.733Z,99.90
2022-09-10T21:50:15.566Z,99.90
2022-09-10T21:52:25.198Z,99.90
2022-09-10T21:54:32.121Z,99.90
2022-09-10T21:56:38.997Z,99.90
2022-09-10T21:58:47.042Z,99.90
2022-09-10T22:00:53.930Z,99.90
2022-09-10T22:03:01.363Z,99.90
2022-09-10T22:05:09.150Z,99.90
2022-09-10T22:07:16.850Z,99.90
2022-09-10T22:09:25.571Z,99.90
2022-09-10T22:11:35.262Z,99.90
2022-09-10T22:13:42.495Z,99.90
2022-09-10T22:15:50.666Z,99.90
2022-09-10T22:17:57.625Z,99.90
2022-09-10T22:20:04.957Z,99.90
2022-09-10T22:22:12.346Z,99.90
2022-09-10T22:24:21.324Z,99.90
2022-09-10T22:26:31.011Z,99.90
2022-09-10T22:28:38.915Z,99.90
2022-09-10T22:30:46.039Z,99.90
2022-09-10T22:32:53.216Z,99.90
2022-09-10T22:35:00.143Z,99.90
2022-09-10T22:37:07.167Z,99.90
2022-09-10T22:39:16.405Z,99.90
2022-09-10T22:41:24.353Z,99.90
2022-09-10T22:43:32.967Z,99.90
2022-09-10T22:45:39.945Z,99.90
2022-09-10T22:47:48.249Z,99.90
2022-09-10T22:49:55.128Z,99.90
2022-09-10T22:52:02.198Z,99.90
2022-09-10T22:54:11.790Z,99.90
2022-09-10T22:56:19.902Z,99.90
2022-09-10T22:58:27.543Z,99.90
2022-09-10T23:00:38.010Z,99.90
2022-09-10T23:02:47.540Z,99.90
2022-09-10T23:04:54.830Z,99.90
2022-09-10T23:07:02.263Z,99.90
2022-09-10T23:09:11.230Z,99.90
2022-09-10T23:11:20.456Z,99.90
2022-09-10T23:13:27.634Z,99.90
2022-09-10T23:15:37.591Z,99.90
2022-09-10T23:17:44.872Z,99.90
2022-09-10T23:19:51.952Z,99.90
2022-09-10T23:21:59.279Z,99.90
2022-09-10T23:24:09.240Z,99.90
2022-09-10T23:26:16.213Z,99.90
2022-09-10T23:28:23.501Z,99.90
2022-09-10T23:30:30.832Z,99.90
2022-09-10T23:32:40.263Z,99.90
2022-09-10T23:34:47.603Z,99.90
2022-09-10T23:36:55.033Z,99.90
2022-09-10T23:39:03.196Z,99.90
2022-09-10T23:41:11.448Z,99.90
2022-09-10T23:43:19.083Z,99.90
2022-09-10T23:45:26.220Z,99.90
2022-09-10T23:47:33.256Z,99.90
2022-09-10T23:49:42.017Z,99.90
2022-09-10T23:51:50.225Z,99.90
2022-09-10T23:53:57.661Z,99.90
2022-09-10T23:56:06.025Z,99.90
2022-09-10T23:58:13.304Z,99.90
